createdAt,value
2022-10-11T00:01:11.506Z,32.18275
2022-10-11T00:06:13.018Z,31.92937
2022-10-11T00:11:14.466Z,31.81787
2022-10-11T00:16:15.677Z,31.70782
2022-10-11T00:21:16.867Z,31.71518
2022-10-11T00:26:17.878Z,31.60362
2022-10-11T00:31:18.950Z,31.53467
2022-10-11T00:36:20.115Z,31.47033
2022-10-11T00:41:21.201Z,31.39998
2022-10-11T00:46:22.270Z,31.42534
2022-10-11T00:51:23.759Z,31.46289
2022-10-11T00:56:24.793Z,31.47207
2022-10-11T01:01:25.983Z,31.61077
2022-10-11T01:06:27.055Z,31.73107
2022-10-11T01:11:28.066Z,31.68344
2022-10-11T01:16:29.058Z,31.68967
2022-10-11T01:21:30.643Z,31.72699
2022-10-11T01:26:31.680Z,31.87605
2022-10-11T01:31:32.857Z,31.92414
2022-10-11T01:36:33.899Z,32.0198
2022-10-11T01:41:35.189Z,32.09806
2022-10-11T01:46:36.294Z,32.24232
2022-10-11T01:51:37.441Z,32.37414
2022-10-11T01:56:38.507Z,32.61183
2022-10-11T02:01:39.565Z,32.577
2022-10-11T02:06:40.594Z,32.67956
2022-10-11T02:11:41.589Z,32.75904
2022-10-11T02:16:42.605Z,33.04509
2022-10-11T02:21:43.700Z,33.09851
2022-10-11T02:26:44.655Z,33.16402
2022-10-11T02:31:45.652Z,33.24317
2022-10-11T02:36:46.626Z,33.40458
2022-10-11T02:41:47.563Z,33.57709
2022-10-11T02:46:49.500Z,33.66644
2022-10-11T02:51:50.664Z,33.75682
2022-10-11T02:56:51.773Z,33.92966
2022-10-11T03:01:52.908Z,34.0364
2022-10-11T03:06:53.903Z,34.16645
2022-10-11T03:11:54.889Z,34.02551
2022-10-11T03:17:00.760Z,34.06189
2022-10-11T03:22:14.557Z,34.0676
2022-10-11T03:27:15.527Z,34.08585
2022-10-11T03:32:16.437Z,34.03862
2022-10-11T03:37:17.395Z,34.0036
2022-10-11T03:42:18.316Z,33.95117
2022-10-11T03:47:19.342Z,34.09387
2022-10-11T03:52:20.917Z,34.2702
2022-10-11T03:57:22.066Z,34.29994
2022-10-11T04:02:24.043Z,34.42925
2022-10-11T04:07:26.132Z,34.45825
2022-10-11T04:12:27.086Z,34.40607
2022-10-11T04:17:28.040Z,34.54314
2022-10-11T04:22:29.581Z,34.77921
2022-10-11T04:27:30.569Z,34.80902
2022-10-11T04:32:31.540Z,34.90483
2022-10-11T04:37:32.442Z,35.12824
2022-10-11T04:42:33.384Z,35.12251
2022-10-11T04:47:34.364Z,35.23414
2022-10-11T04:52:35.512Z,35.32286
2022-10-11T04:57:36.462Z,35.49983
2022-10-11T05:02:37.428Z,35.69387
2022-10-11T05:07:38.361Z,35.84619
2022-10-11T05:12:39.296Z,36.00941
2022-10-11T05:17:40.226Z,36.15496
2022-10-11T05:22:41.336Z,36.189
2022-10-11T05:27:42.232Z,36.39313
2022-10-11T05:32:43.183Z,36.4279
2022-10-11T05:37:44.104Z,36.55044
2022-10-11T05:42:45.010Z,36.5855
2022-10-11T05:47:45.943Z,36.70243
2022-10-11T05:52:47.146Z,36.69024
2022-10-11T05:57:48.146Z,36.60187
2022-10-11T06:02:49.088Z,36.68936
2022-10-11T06:07:49.995Z,36.63086
2022-10-11T06:12:51.067Z,36.72427
2022-10-11T06:17:52.049Z,36.63593
2022-10-11T06:22:53.169Z,36.6708
2022-10-11T06:27:54.237Z,36.68775
2022-10-11T06:32:55.142Z,36.68702
2022-10-11T06:37:56.101Z,36.63248
2022-10-11T06:42:57.042Z,36.45538
2022-10-11T06:47:58.036Z,36.3426
2022-10-11T06:52:59.144Z,36.14843
2022-10-11T06:58:00.183Z,36.21868
2022-10-11T07:03:01.145Z,35.86277
2022-10-11T07:08:02.470Z,35.81572
2022-10-11T07:13:03.451Z,35.73876
2022-10-11T07:18:04.501Z,35.75577
2022-10-11T07:23:05.617Z,35.59523
2022-10-11T07:28:06.603Z,35.36925
2022-10-11T07:33:07.496Z,35.16081
2022-10-11T07:38:08.517Z,34.80026
2022-10-11T07:43:09.446Z,34.74092
2022-10-11T07:48:10.488Z,34.44941
2022-10-11T07:53:11.607Z,34.30492
2022-10-11T07:58:12.519Z,33.97089
2022-10-11T08:03:13.782Z,33.74362
2022-10-11T08:08:15.018Z,33.4045
2022-10-11T08:13:16.018Z,33.13967
2022-10-11T08:18:17.090Z,32.51536
2022-10-11T08:23:18.658Z,32.22632
2022-10-11T08:28:19.682Z,31.3687
2022-10-11T08:33:20.621Z,31.05874
2022-10-11T08:38:21.548Z,21.22354
2022-10-11T08:43:22.731Z,17.97021
2022-10-11T08:48:23.695Z,20.79679
2022-10-11T08:53:24.902Z,19.10701
2022-10-11T08:58:25.845Z,21.83747
2022-10-11T09:03:26.768Z,19.31315
2022-10-11T09:08:27.710Z,19.82206
2022-10-11T09:13:28.645Z,21.30837
2022-10-11T09:18:29.572Z,14.83546
2022-10-11T09:23:30.767Z,12.22034
2022-10-11T09:28:31.775Z,12.88164
2022-10-11T09:33:32.893Z,12.37955
2022-10-11T09:38:33.853Z,13.49505
2022-10-11T09:43:34.809Z,15.62654
2022-10-11T09:48:35.761Z,14.99822
2022-10-11T09:53:37.352Z,14.62321
2022-10-11T09:58:38.271Z,15.92944
2022-10-11T10:03:39.263Z,16.48979
2022-10-11T10:08:40.297Z,17.63817
2022-10-11T10:13:41.632Z,18.27294
2022-10-11T10:18:42.631Z,18.53946
2022-10-11T10:23:43.753Z,18.86512
2022-10-11T10:28:44.905Z,18.97561
2022-10-11T10:33:46.003Z,18.94655
2022-10-11T10:38:51.897Z,19.05562
2022-10-11T10:43:53.202Z,19.0756
2022-10-11T10:49:34.570Z,19.31572
2022-10-11T10:54:42.639Z,19.27739
2022-10-11T10:59:43.638Z,19.67193
2022-10-11T11:04:44.590Z,19.48062
2022-10-11T11:09:45.618Z,19.69737
2022-10-11T11:14:46.618Z,19.98795
2022-10-11T11:19:47.542Z,19.96473
2022-10-11T11:24:48.693Z,19.90365
2022-10-11T11:29:54.519Z,19.98684
2022-10-11T11:34:56.562Z,19.8422
2022-10-11T11:39:57.706Z,20.11075
2022-10-11T11:44:58.611Z,20.21337
2022-10-11T11:49:59.508Z,20.09314
2022-10-11T11:55:03.981Z,20.27243
2022-10-11T12:00:05.339Z,20.24563
2022-10-11T12:05:06.268Z,19.96976
2022-10-11T12:10:07.232Z,20.26884
2022-10-11T12:15:08.215Z,20.45337
2022-10-11T12:20:09.167Z,20.22322
2022-10-11T12:25:13.804Z,20.24882
2022-10-11T12:30:17.186Z,20.15486
2022-10-11T12:35:18.135Z,19.70243
2022-10-11T12:40:19.064Z,19.65369
2022-10-11T12:45:19.999Z,19.89753
2022-10-11T12:50:20.942Z,20.24484
2022-10-11T12:55:22.054Z,20.55657
2022-10-11T13:00:22.947Z,20.72245
2022-10-11T13:05:23.900Z,20.86865
2022-10-11T13:10:24.825Z,21.09296
2022-10-11T13:15:25.744Z,21.22791
2022-10-11T13:20:26.688Z,21.01797
2022-10-11T13:25:27.819Z,20.39182
2022-10-11T13:30:28.778Z,20.45341
2022-10-11T13:35:29.735Z,20.56766
2022-10-11T13:40:30.669Z,20.81205
2022-10-11T13:45:31.599Z,20.85425
2022-10-11T13:50:32.565Z,21.06632
2022-10-11T13:55:33.713Z,21.193
2022-10-11T14:00:34.661Z,21.07459
2022-10-11T14:05:35.623Z,21.20061
2022-10-11T14:10:36.576Z,21.14024
2022-10-11T14:15:37.511Z,21.27824
2022-10-11T14:20:38.451Z,21.22195
2022-10-11T14:25:39.682Z,21.31458
2022-10-11T14:30:40.614Z,21.5832
2022-10-11T14:35:41.578Z,21.71288
2022-10-11T14:40:42.603Z,21.72928
2022-10-11T14:45:43.498Z,21.62272
2022-10-11T14:50:44.419Z,21.66112
2022-10-11T14:55:45.902Z,21.76278
2022-10-11T15:00:46.863Z,21.85285
2022-10-11T15:05:47.872Z,22.11015
2022-10-11T15:10:48.806Z,22.39101
2022-10-11T15:15:49.746Z,22.65938
2022-10-11T15:20:50.765Z,22.83068
2022-10-11T15:25:51.862Z,23.03163
2022-10-11T15:30:52.871Z,23.2579
2022-10-11T15:35:53.787Z,23.47129
2022-10-11T15:40:54.757Z,23.6963
2022-10-11T15:45:55.707Z,23.91065
2022-10-11T15:50:56.622Z,23.93937
2022-10-11T15:55:57.797Z,24.14659
2022-10-11T16:00:58.757Z,24.3979
2022-10-11T16:06:04.659Z,24.51074
2022-10-11T16:11:06.291Z,24.68918
2022-10-11T16:16:07.704Z,24.87893
2022-10-11T16:21:09.513Z,25.05075
2022-10-11T16:26:11.132Z,25.19945
2022-10-11T16:31:12.124Z,25.26397
2022-10-11T16:36:13.067Z,25.41858
2022-10-11T16:41:14.381Z,25.53705
2022-10-11T16:46:15.557Z,25.66715
2022-10-11T16:51:16.543Z,25.7964
2022-10-11T16:56:17.646Z,25.94301
2022-10-11T17:01:18.643Z,26.12511
2022-10-11T17:06:19.628Z,26.55578
2022-10-11T17:11:20.622Z,26.52986
2022-10-11T17:16:21.542Z,26.72858
2022-10-11T17:21:22.529Z,26.95661
2022-10-11T17:26:23.698Z,27.19123
2022-10-11T17:31:24.648Z,27.43695
2022-10-11T17:36:25.544Z,27.67878
2022-10-11T17:41:31.628Z,27.91275
2022-10-11T17:46:33.193Z,28.11615
2022-10-11T17:51:34.167Z,28.27757
2022-10-11T17:56:37.965Z,28.50433
2022-10-11T18:01:39.428Z,28.6372
2022-10-11T18:06:40.494Z,28.78259
2022-10-11T18:11:41.443Z,28.96289
2022-10-11T18:16:42.501Z,29.12472
2022-10-11T18:21:43.453Z,29.23227
2022-10-11T18:26:44.575Z,29.34092
2022-10-11T18:31:45.515Z,29.49015
2022-10-11T18:36:46.433Z,29.60999
2022-10-11T18:41:47.397Z,29.73752
2022-10-11T18:46:48.404Z,29.82232
2022-10-11T18:51:49.395Z,29.98806
2022-10-11T18:56:50.587Z,30.04197
2022-10-11T19:01:51.594Z,30.18523
2022-10-11T19:06:52.606Z,30.28116
2022-10-11T19:11:53.552Z,30.34185
2022-10-11T19:16:54.541Z,30.39563
2022-10-11T19:21:55.503Z,30.47989
2022-10-11T19:27:02.018Z,30.57828
2022-10-11T19:32:03.753Z,30.69798
2022-10-11T19:37:04.727Z,30.74076
2022-10-11T19:42:05.709Z,30.77024
2022-10-11T19:47:06.662Z,30.82445
2022-10-11T19:52:07.609Z,30.93801
2022-10-11T19:57:08.851Z,30.99771
2022-10-11T20:02:09.864Z,31.02255
2022-10-11T20:07:10.770Z,31.13543
2022-10-11T20:12:11.762Z,31.18912
2022-10-11T20:17:12.768Z,31.28441
2022-10-11T20:22:13.887Z,31.34421
2022-10-11T20:27:15.393Z,31.38698
2022-10-11T20:32:16.382Z,31.4885
2022-10-11T20:37:17.342Z,31.53716
2022-10-11T20:42:18.305Z,31.62164
2022-10-11T20:47:19.235Z,31.68759
2022-10-11T20:52:20.164Z,31.69424
2022-10-11T20:57:21.323Z,31.70733
2022-10-11T21:02:22.253Z,31.7371
2022-10-11T21:07:24.638Z,31.82009
2022-10-11T21:12:26.614Z,31.81455
2022-10-11T21:17:27.563Z,31.84568
2022-10-11T21:22:28.458Z,31.93494
2022-10-11T21:27:29.606Z,32.00784
2022-10-11T21:32:30.543Z,32.0848
2022-10-11T21:37:31.636Z,32.11541
2022-10-11T21:42:32.934Z,32.13999
2022-10-11T21:47:38.036Z,32.16453
2022-10-11T21:52:39.949Z,32.2365
2022-10-11T21:57:41.065Z,32.33103
2022-10-11T22:02:42.008Z,32.3492
2022-10-11T22:07:42.899Z,32.36742
2022-10-11T22:12:43.877Z,32.44509
2022-10-11T22:17:44.787Z,32.51621
2022-10-11T22:22:45.779Z,32.4577
2022-10-11T22:27:46.925Z,32.49931
2022-10-11T22:32:47.827Z,32.51739
2022-10-11T22:37:48.737Z,32.58288
2022-10-11T22:42:49.663Z,32.67256
2022-10-11T22:47:50.588Z,32.73299
2022-10-11T22:52:51.497Z,32.82197
2022-10-11T22:57:52.973Z,32.8519
2022-10-11T23:02:53.901Z,32.88699
2022-10-11T23:07:54.845Z,32.89943
2022-10-11T23:12:55.789Z,32.89993
2022-10-11T23:17:56.721Z,32.87151
2022-10-11T23:22:57.634Z,33.02473
2022-10-11T23:27:58.767Z,33.01914
2022-10-11T23:32:59.682Z,32.93618
2022-10-11T23:38:00.589Z,32.96056
2022-10-11T23:43:01.549Z,32.97871
2022-10-11T23:48:02.564Z,33.05507
2022-10-11T23:53:03.479Z,33.24324
2022-10-11T23:58:04.576Z,33.20792
